Time;durP1;ratioP1;P1;durP2;ratioP2;P2;SDS_P1;SDS_P2;PMS_P1;PMS_P2;Temp;Humidity;BMP_temperature;BMP_pressure;BME280_temperature;BME280_humidity;BME280_pressure;Samples;Min_cycle;Max_cycle;Signal;HPM_P1;HPM_P2
2022/08/18 00:01:41;;;;;;;12.40;9.50;;;;;;;24.80;45.41;92877.94;4916336;23;20048;-94
2022/08/18 00:07:01;;;;;;;11.38;8.50;;;;;;;24.81;45.56;92881.44;5239715;23;20052;-93
2022/08/18 00:09:35;;;;;;;12.50;9.27;;;;;;;24.83;45.63;92878.84;5188695;23;20116;-93
2022/08/18 00:15:10;;;;;;;12.75;9.18;;;;;;;24.80;45.60;92877.22;5090537;23;20040;-95
2022/08/18 00:18:14;;;;;;;10.38;8.23;;;;;;;24.79;45.89;92881.28;4862607;29;20053;-92
2022/08/18 00:21:41;;;;;;;11.38;8.85;;;;;;;24.80;45.59;92875.19;5063116;23;20039;-94
2022/08/18 00:24:58;;;;;;;10.40;8.63;;;;;;;24.80;45.76;92874.44;4887332;29;20056;-95
2022/08/18 00:27:55;;;;;;;;;;;;;;;;;;;;;
2022/08/18 00:33:23;;;;;;;11.02;8.25;;;;;;;24.80;45.67;92868.91;2675311;23;20469;-94
2022/08/18 00:38:44;;;;;;;9.70;7.75;;;;;;;24.78;45.82;92875.00;5462463;23;20052;-92
2022/08/18 00:41:55;;;;;;;10.55;7.85;;;;;;;24.77;45.75;92870.06;4884760;29;20037;-94
2022/08/18 00:44:43;;;;;;;9.93;7.50;;;;;;;24.77;45.80;92892.16;4852903;29;20021;-93
2022/08/18 00:52:11;;;;;;;9.88;8.38;;;;;;;24.78;45.66;92872.25;5356782;23;20058;-93
2022/08/18 00:57:24;;;;;;;11.43;8.35;;;;;;;24.77;45.78;92872.81;5074580;23;20066;-93
2022/08/18 01:00:11;;;;;;;8.75;7.40;;;;;;;24.77;45.80;92870.06;5126855;23;20047;-95
2022/08/18 01:03:22;;;;;;;8.50;6.97;;;;;;;24.77;45.62;92875.56;4932921;29;20455;-94
2022/08/18 01:06:34;;;;;;;10.90;7.95;;;;;;;24.76;45.72;92868.59;4860502;29;20036;-93
2022/08/18 01:09:34;;;;;;;11.50;7.43;;;;;;;24.79;45.71;92870.22;4897446;28;20072;-93
2022/08/18 01:13:06;;;;;;;9.50;6.40;;;;;;;24.76;45.68;92871.34;5136333;23;20039;-93
2022/08/18 01:26:55;;;;;;;9.25;6.47;;;;;;;24.75;45.88;92869.88;4935801;29;20059;-94
2022/08/18 01:29:46;;;;;;;8.25;6.68;;;;;;;24.76;45.71;92868.59;4903776;29;20052;-94
2022/08/18 01:35:34;;;;;;;7.47;6.35;;;;;;;24.75;45.74;92864.34;5039918;23;20043;-94
2022/08/18 01:38:21;;;;;;;9.65;6.32;;;;;;;24.75;45.75;92864.34;5088897;23;20148;-94
2022/08/18 01:41:34;;;;;;;9.63;6.90;;;;;;;24.74;45.86;92866.38;4906162;29;20028;-94
2022/08/18 01:52:03;;;;;;;8.75;5.88;;;;;;;24.73;45.76;92864.19;4860118;29;20130;-92
2022/08/18 01:57:44;;;;;;;7.22;5.68;;;;;;;24.73;45.75;92862.16;5537192;23;20055;-93
2022/08/18 02:01:00;;;;;;;8.75;6.15;;;;;;;24.72;45.77;92859.94;4933819;28;20093;-94
2022/08/18 02:03:59;;;;;;;8.40;6.40;;;;;;;24.72;45.74;92854.41;4911687;29;20029;-93
2022/08/18 02:19:11;;;;;;;6.72;5.88;;;;;;;24.69;45.82;92861.81;4788665;29;20052;-93
2022/08/18 02:21:51;;;;;;;7.10;5.88;;;;;;;24.69;45.85;92864.56;5171175;23;20044;-94
2022/08/18 02:27:47;;;;;;;6.00;5.40;;;;;;;24.70;45.70;92851.50;5620796;23;20032;-94
2022/08/18 02:36:11;;;;;;;7.32;5.72;;;;;;;24.69;45.72;92861.06;5021702;23;20056;-94
2022/08/18 02:51:36;;;;;;;7.03;5.63;;;;;;;24.68;45.69;92854.84;4956394;29;20048;-94
2022/08/18 02:57:05;;;;;;;6.57;5.25;;;;;;;24.67;45.77;92872.00;5436836;23;20043;-95
2022/08/18 03:03:23;;;;;;;6.00;4.70;;;;;;;24.69;45.83;92861.81;5177720;23;20064;-94
2022/08/18 03:10:08;;;;;;;6.15;5.05;;;;;;;24.65;45.75;92878.09;5101280;23;20051;-94
2022/08/18 03:13:30;;;;;;;7.80;5.30;;;;;;;24.64;45.63;92884.91;4944059;28;20062;-95
2022/08/18 03:19:09;;;;;;;5.65;4.65;;;;;;;24.64;45.86;92882.13;5044074;23;20062;-94
2022/08/18 03:24:43;;;;;;;5.45;4.63;;;;;;;24.66;45.78;92898.16;5111322;23;20067;-94
2022/08/18 03:28:05;;;;;;;;;;;;;;;;;;;;;
2022/08/18 03:34:06;;;;;;;;;;;;;;;;;;;;;
2022/08/18 03:41:37;;;;;;;5.72;4.80;;;;;;;24.57;44.36;92897.47;4933559;28;20803;-94
2022/08/18 03:44:02;;;;;;;7.50;4.13;;;;;;;24.45;44.74;92904.03;4896909;29;20040;-93
2022/08/18 03:47:02;;;;;;;5.50;4.43;;;;;;;24.43;44.62;92912.88;4889008;29;20040;-95
2022/08/18 03:49:51;;;;;;;;;;;;;;;;;;;;;
2022/08/18 03:52:30;;;;;;;13.07;5.15;;;;;;;24.36;44.88;92915.69;4906386;29;20103;-93
2022/08/18 03:55:04;;;;;;;7.93;4.88;;;;;;;24.33;44.93;92922.31;4906392;29;20036;-93
2022/08/18 03:57:31;;;;;;;7.50;5.35;;;;;;;24.21;44.86;92922.75;4889984;29;20483;-94
2022/08/18 03:59:57;;;;;;;9.60;4.90;;;;;;;24.14;45.22;92917.97;4886699;29;20121;-93
2022/08/18 04:02:22;;;;;;;8.25;5.00;;;;;;;24.11;45.21;92912.84;4875940;29;20460;-90
2022/08/18 04:04:51;;;;;;;7.90;4.82;;;;;;;24.06;45.20;92916.53;4884244;29;20077;-92
2022/08/18 04:07:17;;;;;;;9.20;5.15;;;;;;;24.01;45.51;92912.00;4894668;29;20054;-94
2022/08/18 04:12:14;;;;;;;8.57;5.75;;;;;;;23.97;45.55;92908.88;4940547;23;20052;-93
2022/08/18 04:15:06;;;;;;;10.50;6.70;;;;;;;23.96;45.76;92899.13;4921747;29;20036;-92
2022/08/18 04:18:07;;;;;;;8.20;5.70;;;;;;;23.98;45.59;92899.28;4931387;29;20036;-93
2022/08/18 04:20:45;;;;;;;6.20;5.60;;;;;;;24.02;45.18;92914.19;4949660;23;20032;-93
2022/08/18 04:23:36;;;;;;;7.32;6.00;;;;;;;23.99;45.07;92918.06;4912049;29;20050;-95
2022/08/18 04:26:11;;;;;;;8.25;4.65;;;;;;;23.99;45.00;92925.63;5247402;23;20016;-95
2022/08/18 04:28:37;;;;;;;8.05;4.63;;;;;;;23.92;45.39;92918.81;4886631;29;20048;-92
2022/08/18 04:31:08;;;;;;;8.77;5.57;;;;;;;23.90;45.52;92927.66;4911168;29;20107;-94
2022/08/18 04:33:34;;;;;;;12.80;7.82;;;;;;;23.79;45.73;92930.84;4903571;29;20075;-92
2022/08/18 04:36:06;;;;;;;19.92;14.10;;;;;;;23.86;45.83;92937.63;4877518;29;20111;-93
2022/08/18 04:38:34;;;;;;;279.33;244.55;;;;;;;23.93;45.99;92934.84;4892545;29;20148;-93
2022/08/18 04:41:02;;;;;;;20.40;12.98;;;;;;;23.90;45.83;92933.19;4891535;29;20095;-95
2022/08/18 04:44:11;;;;;;;22.58;12.18;;;;;;;23.93;45.65;92943.13;4899393;29;20058;-95
2022/08/18 04:46:50;;;;;;;22.63;10.93;;;;;;;23.95;45.52;92937.03;4914882;29;20040;-94
2022/08/18 04:49:55;;;;;;;52.15;10.00;;;;;;;23.94;45.40;92938.34;4889941;29;20504;-95
2022/08/18 04:53:44;;;;;;;101.28;14.43;;;;;;;24.00;45.64;92955.44;4924427;23;20055;-94
2022/08/18 04:56:45;;;;;;;47.28;9.90;;;;;;;23.94;45.75;92946.63;4861647;29;20048;-94
2022/08/18 04:59:11;;;;;;;;;;;;;;;23.97;45.90;92945.50;4845138;29;20529;-95
2022/08/18 05:01:46;;;;;;;94.63;44.67;;;;;;;23.96;45.93;92951.56;4829736;29;19920;-93
2022/08/18 05:04:44;;;;;;;249.93;64.85;;;;;;;23.96;46.07;92954.34;4857699;29;20060;-93
2022/08/18 05:07:10;;;;;;;73.57;20.70;;;;;;;23.92;46.49;92951.94;4862245;29;20056;-92
2022/08/18 05:09:43;;;;;;;62.65;21.30;;;;;;;24.04;46.62;92966.06;4826478;29;20421;-89
2022/08/18 05:14:36;;;;;;;45.55;13.45;;;;;;;24.00;46.69;92954.69;4948388;23;20123;-93
2022/08/18 05:22:51;;;;;;;30.48;10.05;;;;;;;24.13;46.98;92941.38;4931021;28;20040;-91
2022/08/18 05:25:16;;;;;;;30.55;14.45;;;;;;;24.13;47.90;92941.38;4883009;29;20787;-92
2022/08/18 05:27:43;;;;;;;64.95;17.88;;;;;;;24.21;47.55;92935.81;4899869;29;20055;-90
2022/08/18 05:30:08;;;;;;;54.00;21.48;;;;;;;24.26;47.38;92938.38;4888324;29;20044;-91
2022/08/18 05:32:38;;;;;;;53.63;21.88;;;;;;;24.29;46.84;92933.03;4893914;29;20655;-93
2022/08/18 05:35:38;;;;;;;30.42;13.73;;;;;;;24.33;46.92;92936.88;4884265;29;20126;-92
2022/08/18 05:38:24;;;;;;;31.80;13.50;;;;;;;24.30;46.88;92937.25;4866771;23;20113;-92
2022/08/18 05:41:22;;;;;;;41.55;13.27;;;;;;;24.42;47.73;92933.50;4880464;29;20100;-93
2022/08/18 05:43:55;;;;;;;17.88;9.48;;;;;;;24.47;47.72;92932.53;4920890;29;20040;-93
2022/08/18 05:46:31;;;;;;;18.42;8.60;;;;;;;24.43;47.54;92942.53;4870728;29;20048;-94
2022/08/18 05:48:56;;;;;;;21.25;9.20;;;;;;;24.58;47.47;92940.41;4898886;29;20047;-93
2022/08/18 05:51:45;;;;;;;32.30;10.55;;;;;;;24.56;47.45;92936.72;4889592;29;20079;-94
2022/08/18 05:57:05;;;;;;;30.00;13.65;;;;;;;24.45;47.21;92946.22;4871848;29;20067;-95
2022/08/18 05:59:58;;;;;;;25.08;11.60;;;;;;;24.52;46.77;92950.94;4917245;23;20051;-94
2022/08/18 06:02:37;;;;;;;36.63;13.25;;;;;;;24.67;46.32;92966.69;4904773;29;20082;-93
2022/08/18 06:05:26;;;;;;;20.35;10.05;;;;;;;24.59;46.47;92966.75;4937526;28;20095;-91
2022/08/18 06:08:21;;;;;;;18.75;10.45;;;;;;;24.56;46.51;92986.47;4912900;29;20119;-94
2022/08/18 06:10:50;;;;;;;12.18;8.68;;;;;;;24.59;46.99;92993.66;4908030;29;20036;-94
2022/08/18 06:13:18;;;;;;;19.60;9.37;;;;;;;24.59;46.32;92996.41;4937517;29;20107;-93
2022/08/18 06:18:49;;;;;;;;;;;;;;;24.67;46.66;93008.16;4943701;23;20042;-91
2022/08/18 06:22:06;;;;;;;10.50;6.50;;;;;;;24.68;47.51;93012.41;4922807;29;19927;-95
2022/08/18 06:47:59;;;;;;;25.13;10.50;;;;;;;24.45;48.10;93053.97;5496780;23;20067;-92
2022/08/18 06:54:27;;;;;;;27.67;11.35;;;;;;;24.54;48.20;93061.66;5136972;23;20194;-95
2022/08/18 06:56:58;;;;;;;24.35;11.88;;;;;;;24.53;48.02;93054.66;5556688;23;21230;-93
2022/08/18 07:02:55;;;;;;;48.33;20.35;;;;;;;24.67;47.78;93059.94;4815691;29;20047;-93
2022/08/18 07:08:14;;;;;;;59.72;29.50;;;;;;;24.66;47.67;93050.91;5150692;23;20059;-92
2022/08/18 07:29:37;;;;;;;91.78;36.90;;;;;;;24.83;47.70;93051.00;4925282;29;20060;-93
2022/08/18 07:32:14;;;;;;;72.40;35.87;;;;;;;24.81;47.77;93037.00;4888682;29;20028;-92
2022/08/18 07:35:00;;;;;;;85.55;38.72;;;;;;;24.83;47.63;93039.94;4881879;29;20047;-95
2022/08/18 07:40:33;;;;;;;131.32;59.47;;;;;;;24.85;47.77;93050.44;5370584;23;20280;-95
2022/08/18 07:43:13;;;;;;;149.65;77.18;;;;;;;24.89;47.80;93051.53;4893477;29;20028;-93
2022/08/18 07:46:11;;;;;;;153.27;76.85;;;;;;;24.85;47.79;93051.19;4876402;29;20059;-94
2022/08/18 07:49:02;;;;;;;138.50;74.38;;;;;;;24.89;47.91;93059.09;4906738;29;20016;-93
2022/08/18 07:51:45;;;;;;;;;;;;;;;24.87;47.74;93056.88;4901931;29;20480;-91
2022/08/18 07:55:05;;;;;;;184.82;89.93;;;;;;;24.86;47.80;93060.94;4890847;29;19932;-92
2022/08/18 07:57:39;;;;;;;181.13;81.70;;;;;;;24.91;47.65;93059.97;4849875;29;20571;-91
2022/08/18 08:00:23;;;;;;;168.70;74.15;;;;;;;24.94;47.82;93042.28;4845424;29;20052;-88
2022/08/18 08:03:03;;;;;;;138.95;62.03;;;;;;;24.99;47.78;93034.34;4849728;29;20048;-87
2022/08/18 08:06:37;;;;;;;128.38;62.97;;;;;;;24.95;47.39;93031.97;4849373;29;20060;-94
2022/08/18 08:09:21;;;;;;;128.43;62.63;;;;;;;24.94;47.86;93024.94;4822424;29;20050;-93
2022/08/18 08:17:17;;;;;;;219.00;111.97;;;;;;;24.97;47.85;92974.06;4981951;23;20490;-90
2022/08/18 08:19:52;;;;;;;261.77;136.18;;;;;;;24.97;47.79;92951.94;4921938;29;20044;-89
2022/08/18 08:22:47;;;;;;;237.98;111.47;;;;;;;24.94;47.95;92942.72;4930084;29;20041;-94
2022/08/18 08:25:25;;;;;;;238.65;111.15;;;;;;;24.98;47.74;92939.56;4906121;29;20036;-88
2022/08/18 08:28:09;;;;;;;447.23;119.85;;;;;;;24.96;47.94;92938.66;4917484;29;20051;-91
2022/08/18 08:30:50;;;;;;;491.33;122.97;;;;;;;24.95;48.16;92929.63;4923970;29;20375;-93
2022/08/18 08:33:44;;;;;;;387.00;113.30;;;;;;;24.97;47.98;92920.78;4930955;29;20064;-92
2022/08/18 08:36:19;;;;;;;165.45;53.92;;;;;;;25.01;48.23;92915.59;4924194;29;20046;-92
2022/08/18 08:38:55;;;;;;;97.18;44.08;;;;;;;24.94;49.04;92923.38;4922797;29;20115;-92
2022/08/18 08:41:56;;;;;;;93.93;35.83;;;;;;;24.85;50.30;92942.63;4885466;29;20032;-95
2022/08/18 08:44:45;;;;;;;75.55;26.55;;;;;;;24.74;51.12;92956.88;4887377;29;20040;-94
2022/08/18 08:47:35;;;;;;;70.47;30.33;;;;;;;24.60;52.11;92943.34;4881122;29;20037;-92
2022/08/18 08:50:08;;;;;;;52.50;24.88;;;;;;;24.60;52.34;92948.13;4880620;29;20288;-92
2022/08/18 08:52:52;;;;;;;116.65;45.47;;;;;;;24.60;50.92;92951.63;4867216;29;20037;-93
2022/08/18 08:55:24;;;;;;;101.50;39.72;;;;;;;24.74;50.54;92949.31;4894441;29;20653;-91
2022/08/18 08:58:14;;;;;;;100.13;42.72;;;;;;;24.78;50.26;92937.88;4849999;29;20095;-91
2022/08/18 09:00:39;;;;;;;74.25;35.10;;;;;;;24.85;51.15;92939.84;4881155;29;20130;-93
2022/08/18 09:03:11;;;;;;;74.97;35.60;;;;;;;24.87;51.04;92943.50;4875337;29;20063;-92
2022/08/18 09:05:51;;;;;;;87.72;41.13;;;;;;;24.91;50.51;92940.34;4878520;29;20075;-91
2022/08/18 09:08:23;;;;;;;223.82;115.95;;;;;;;24.95;50.04;92940.69;4861283;29;20043;-91
2022/08/18 09:10:58;;;;;;;197.13;98.13;;;;;;;24.96;49.93;92920.03;4855704;29;20049;-92
2022/08/18 09:13:31;;;;;;;218.57;107.10;;;;;;;25.01;49.40;92923.88;4872832;29;20379;-92
2022/08/18 09:16:09;;;;;;;176.82;81.35;;;;;;;25.04;49.65;92926.25;4875308;29;20041;-93
2022/08/18 09:18:44;;;;;;;104.03;48.97;;;;;;;25.03;49.76;92932.34;4895730;29;20036;-93
2022/08/18 09:21:28;;;;;;;143.40;61.90;;;;;;;25.06;49.67;92934.00;4875341;29;20034;-92
2022/08/18 09:24:21;;;;;;;116.03;54.30;;;;;;;25.03;49.71;92926.81;4875093;29;20108;-91
2022/08/18 09:27:24;;;;;;;124.95;65.90;;;;;;;25.05;49.68;92938.78;4870564;29;20051;-94
2022/08/18 09:29:56;;;;;;;102.82;48.53;;;;;;;25.15;49.67;92941.63;4890479;29;20041;-91
2022/08/18 09:32:22;;;;;;;140.77;74.20;;;;;;;25.20;49.21;92948.97;4891297;29;20034;-89
2022/08/18 09:35:22;;;;;;;133.18;68.40;;;;;;;25.16;49.62;92943.09;4906776;29;20039;-93
2022/08/18 09:44:37;;;;;;;148.85;77.07;;;;;;;25.11;49.59;92931.00;4900985;29;20075;-95
2022/08/18 09:47:03;;;;;;;168.38;86.85;;;;;;;25.19;49.67;92928.16;4947378;29;20027;-94
2022/08/18 09:49:44;;;;;;;230.60;104.90;;;;;;;25.16;49.50;92937.56;4906790;29;20084;-94
2022/08/18 09:52:40;;;;;;;150.25;67.38;;;;;;;25.20;50.35;92921.31;4916847;29;20118;-93
2022/08/18 09:55:27;;;;;;;81.47;39.97;;;;;;;25.19;51.81;92917.06;4920958;29;20032;-89
2022/08/18 09:58:17;;;;;;;91.38;42.20;;;;;;;25.18;51.46;92916.34;4871932;29;20359;-92
2022/08/18 10:01:27;;;;;;;91.15;48.67;;;;;;;25.14;52.81;92913.25;4880807;29;20055;-94
2022/08/18 10:07:34;;;;;;;109.38;55.15;;;;;;;25.12;51.54;92921.38;4857830;29;20544;-92
2022/08/18 10:10:14;;;;;;;70.93;35.85;;;;;;;25.19;51.66;92923.34;4843719;29;20190;-94
2022/08/18 10:13:13;;;;;;;78.57;38.90;;;;;;;25.20;51.42;92926.84;4848897;29;20089;-95
2022/08/18 10:16:00;;;;;;;38.50;17.58;;;;;;;25.20;52.17;92924.06;4861819;29;20281;-94
2022/08/18 10:18:44;;;;;;;45.47;21.77;;;;;;;25.15;51.96;92916.75;4842956;29;20057;-94
2022/08/18 10:21:20;;;;;;;57.75;33.65;;;;;;;25.22;51.41;92922.22;4830485;29;20802;-94
2022/08/18 10:23:53;;;;;;;36.13;19.38;;;;;;;25.26;52.34;92933.63;4848595;29;20061;-94
2022/08/18 10:27:04;;;;;;;44.95;25.00;;;;;;;25.31;51.25;92925.66;4844048;29;20033;-96
2022/08/18 10:29:30;;;;;;;50.55;24.67;;;;;;;25.34;51.70;92921.72;4823541;29;20069;-94
2022/08/18 10:32:02;;;;;;;67.55;37.42;;;;;;;25.26;50.78;92927.34;4837187;29;20540;-96
2022/08/18 10:34:44;;;;;;;57.00;33.97;;;;;;;25.26;50.78;92927.34;4853310;29;20030;-93
2022/08/18 10:37:26;;;;;;;30.63;17.33;;;;;;;25.30;50.91;92927.69;4845187;29;20808;-95
2022/08/18 10:40:21;;;;;;;46.70;26.48;;;;;;;25.28;51.03;92936.56;4837270;29;20078;-95
2022/08/18 11:01:39;;;;;;;48.53;26.17;;;;;;;25.24;50.94;92960.38;5368242;23;20088;-93
2022/08/18 11:39:19;;;;;;;80.40;40.35;;;;;;;25.34;50.89;92930.03;3179125;23;20330;-94
2022/08/18 11:42:06;;;;;;;93.28;42.22;;;;;;;25.33;50.72;92926.56;4881865;29;20060;-93
2022/08/18 11:44:33;;;;;;;106.68;52.40;;;;;;;25.34;50.44;92919.69;4913815;29;20074;-95
2022/08/18 11:47:14;;;;;;;72.95;40.67;;;;;;;25.32;50.72;92929.88;4916524;29;20024;-93
2022/08/18 11:50:20;;;;;;;;;;;;;;;;;;;;;
2022/08/18 12:04:37;;;;;;;87.13;47.78;;;;;;;25.61;49.68;92909.44;4923338;28;20060;-94
2022/08/18 12:08:15;;;;;;;91.95;53.13;;;;;;;25.62;49.74;92915.72;4915094;29;20101;-95
2022/08/18 12:10:24;;;;;;;102.10;53.42;;;;;;;25.69;49.60;92914.19;4918584;23;20048;-95
2022/08/18 12:12:58;;;;;;;100.70;47.47;;;;;;;25.69;49.60;92906.63;4887544;29;20032;-93
2022/08/18 12:15:34;;;;;;;98.65;51.47;;;;;;;25.74;49.58;92891.06;4869466;29;20028;-93
2022/08/18 12:18:16;;;;;;;85.07;47.17;;;;;;;25.70;49.41;92899.06;4901590;29;20051;-92
2022/08/18 12:20:42;;;;;;;84.90;44.70;;;;;;;25.75;49.39;92881.47;4913762;29;20044;-94
2022/08/18 12:23:08;;;;;;;84.05;44.08;;;;;;;25.74;49.66;92868.94;4892781;29;20118;-94
2022/08/18 12:26:04;;;;;;;89.15;45.53;;;;;;;25.71;49.57;92868.03;4970669;23;20138;-91
2022/08/18 12:28:31;;;;;;;94.28;51.58;;;;;;;25.75;49.11;92870.41;4877824;29;20045;-93
2022/08/18 12:30:56;;;;;;;113.68;60.72;;;;;;;25.75;50.29;92851.75;4861006;29;20073;-94
2022/08/18 12:33:22;;;;;;;103.78;58.13;;;;;;;25.76;49.92;92841.41;4850291;29;20037;-92
2022/08/18 12:36:03;;;;;;;101.63;53.83;;;;;;;25.82;49.99;92841.84;4858950;23;20056;-94
2022/08/18 12:38:28;;;;;;;90.68;49.85;;;;;;;25.85;50.11;92841.44;4907250;29;20020;-94
2022/08/18 12:41:05;;;;;;;72.00;43.60;;;;;;;25.82;49.29;92844.63;4909733;29;20032;-94
2022/08/18 12:43:41;;;;;;;85.07;44.45;;;;;;;25.80;49.94;92839.66;4916865;29;20035;-94
2022/08/18 12:46:18;;;;;;;87.50;43.30;;;;;;;25.86;50.63;92842.19;4911998;29;20065;-94
2022/08/18 12:48:50;;;;;;;87.93;44.75;;;;;;;25.90;49.78;92840.47;4906986;29;20023;-92
2022/08/18 12:51:16;;;;;;;142.23;104.78;;;;;;;25.90;49.87;92848.03;4899210;29;20024;-93
2022/08/18 12:53:43;;;;;;;73.53;39.35;;;;;;;25.91;49.60;92849.50;4891553;29;20074;-91
2022/08/18 12:56:28;;;;;;;69.38;39.13;;;;;;;25.95;49.85;92836.72;4907862;29;20040;-93
2022/08/18 12:59:24;;;;;;;56.90;33.05;;;;;;;25.93;49.16;92828.25;4909688;29;20036;-95
2022/08/18 13:02:03;;;;;;;51.00;29.23;;;;;;;25.94;48.95;92826.22;4902465;29;20120;-93
2022/08/18 13:04:44;;;;;;;50.60;30.10;;;;;;;25.92;49.00;92824.00;4881937;29;20222;-95
2022/08/18 13:08:14;;;;;;;42.10;26.92;;;;;;;25.84;49.06;92822.63;5118256;23;20051;-94
2022/08/18 13:11:09;;;;;;;151.95;84.47;;;;;;;25.82;48.69;92831.50;4892240;29;20052;-95
2022/08/18 13:13:36;;;;;;;246.93;85.68;;;;;;;25.89;49.11;92843.81;4947605;23;20067;-93
2022/08/18 13:16:02;;;;;;;152.38;67.95;;;;;;;25.87;48.61;92840.88;4903154;29;20025;-93
2022/08/18 13:18:28;;;;;;;109.18;54.95;;;;;;;25.85;48.52;92835.91;4915672;29;20743;-93
2022/08/18 13:21:26;;;;;;;189.50;67.80;;;;;;;25.83;48.62;92832.97;4870324;29;20032;-93
2022/08/18 13:23:57;;;;;;;135.68;63.67;;;;;;;25.85;48.73;92837.94;4910208;29;20016;-93
2022/08/18 13:26:56;;;;;;;;;;;;;;;;;;;;;
2022/08/18 13:29:29;;;;;;;92.28;46.80;;;;;;;25.84;48.64;92861.41;4880533;29;20087;-92
2022/08/18 13:32:10;;;;;;;;;;;;;;;;;;;;;
2022/08/18 13:43:12;;;;;;;135.25;51.10;;;;;;;25.83;48.44;92846.81;5935688;23;20813;-94
2022/08/18 13:50:44;;;;;;;87.50;43.92;;;;;;;25.83;48.49;92837.78;4918605;29;20052;-93
2022/08/18 13:53:15;;;;;;;85.87;43.03;;;;;;;25.85;48.55;92840.72;4864593;29;20027;-94
2022/08/18 13:56:08;;;;;;;;;;;;;;;;;;;;;
2022/08/18 13:58:35;;;;;;;77.35;40.03;;;;;;;25.87;48.24;92827.03;4845859;29;20104;-93
2022/08/18 14:13:55;;;;;;;116.65;39.22;;;;;;;25.87;48.12;92855.47;5075538;23;20048;-92
2022/08/18 14:16:37;;;;;;;97.95;39.03;;;;;;;25.84;48.60;92858.63;4873135;29;20069;-95
2022/08/18 14:27:23;;;;;;;93.07;34.88;;;;;;;25.88;49.17;92865.22;4911965;29;20164;-92
2022/08/18 14:29:54;;;;;;;81.72;32.80;;;;;;;25.87;48.21;92849.19;4929646;29;20031;-94
2022/08/18 14:32:41;;;;;;;98.18;33.70;;;;;;;25.84;48.67;92856.59;4941234;29;20027;-93
2022/08/18 14:35:16;;;;;;;69.10;33.40;;;;;;;25.87;48.43;92854.72;5040768;23;20022;-95
2022/08/18 15:01:02;;;;;;;107.20;31.38;;;;;;;25.80;50.12;92874.94;4937502;23;20051;-94
2022/08/18 15:04:05;;;;;;;106.65;34.80;;;;;;;25.77;50.55;92859.44;4902149;29;20044;-96
2022/08/18 15:06:40;;;;;;;151.63;63.75;;;;;;;25.79;50.44;92840.97;4925898;29;20036;-94
2022/08/18 15:09:05;;;;;;;102.68;41.63;;;;;;;25.84;50.36;92839.97;4889836;29;20025;-94
2022/08/18 15:13:58;;;;;;;140.23;55.92;;;;;;;25.86;50.11;92776.47;4945401;23;20052;-92
2022/08/18 15:16:45;;;;;;;;;;;;;;;;;;;;;
2022/08/18 15:19:11;;;;;;;189.43;58.35;;;;;;;25.83;50.51;92740.88;4861372;29;20117;-91
2022/08/18 15:27:15;;;;;;;56.22;28.60;;;;;;;25.71;52.41;92709.50;4944246;23;20066;-91
2022/08/18 15:29:45;;;;;;;67.90;30.35;;;;;;;25.73;52.25;92676.44;4911609;29;20423;-93
2022/08/18 15:32:23;;;;;;;143.52;48.05;;;;;;;25.73;51.56;92682.69;4930249;29;20443;-93
2022/08/18 15:34:56;;;;;;;80.85;32.15;;;;;;;25.66;52.09;92677.28;4949366;23;20064;-90
2022/08/18 15:37:24;;;;;;;53.55;28.02;;;;;;;25.68;52.05;92664.31;4909413;23;20192;-91
2022/08/18 15:39:56;;;;;;;42.45;24.02;;;;;;;25.69;52.44;92645.66;4912714;23;20043;-91
2022/08/18 15:42:28;;;;;;;62.80;29.23;;;;;;;25.68;51.67;92674.66;5021934;23;20106;-93
2022/08/18 15:44:55;;;;;;;60.63;28.08;;;;;;;25.64;51.67;92675.06;4947682;23;20510;-93
2022/08/18 15:47:23;;;;;;;39.10;25.95;;;;;;;25.54;51.71;92696.44;4915304;23;20515;-92
2022/08/18 15:49:49;;;;;;;31.50;18.45;;;;;;;25.54;50.69;92694.41;4922134;29;20035;-91
2022/08/18 15:52:18;;;;;;;48.85;27.63;;;;;;;25.56;51.66;92697.28;4918616;29;20064;-93
2022/08/18 15:54:44;;;;;;;46.60;23.83;;;;;;;25.60;51.90;92680.28;4909255;29;20032;-91
2022/08/18 15:57:12;;;;;;;45.33;25.65;;;;;;;25.60;51.59;92681.00;4926508;29;20034;-91
2022/08/18 15:59:58;;;;;;;33.42;18.92;;;;;;;25.64;51.37;92675.06;4947573;29;20067;-93
2022/08/18 16:03:00;;;;;;;37.80;24.48;;;;;;;25.61;51.57;92670.66;4903454;29;20059;-93
2022/08/18 16:05:35;;;;;;;38.75;23.45;;;;;;;25.62;51.62;92669.34;4909745;29;20034;-95
2022/08/18 16:08:05;;;;;;;35.47;21.98;;;;;;;25.64;51.27;92671.59;4952207;23;20062;-96
2022/08/18 16:10:41;;;;;;;37.55;22.90;;;;;;;25.66;51.58;92664.16;4909531;29;20064;-93
2022/08/18 16:13:13;;;;;;;34.55;20.25;;;;;;;25.68;51.28;92658.06;4940889;29;20099;-93
2022/08/18 16:15:40;;;;;;;33.08;19.63;;;;;;;25.66;51.47;92666.19;4852452;29;20041;-92
2022/08/18 16:18:09;;;;;;;28.27;20.23;;;;;;;25.67;51.16;92670.44;4839570;29;20040;-93
2022/08/18 16:20:38;;;;;;;38.75;23.88;;;;;;;25.72;51.02;92672.22;4881473;29;20048;-92
2022/08/18 16:23:07;;;;;;;25.40;16.67;;;;;;;25.70;51.53;92677.59;4954639;23;20079;-94
2022/08/18 16:25:32;;;;;;;15.98;11.45;;;;;;;25.69;52.07;92674.09;4927520;23;20051;-91
2022/08/18 16:27:58;;;;;;;28.63;17.08;;;;;;;25.78;51.00;92678.19;4897300;29;20080;-90
2022/08/18 16:30:27;;;;;;;28.60;22.95;;;;;;;25.75;52.07;92671.78;4909805;29;20039;-91
2022/08/18 16:32:52;;;;;;;24.00;15.63;;;;;;;25.74;51.67;92678.63;4924875;29;20031;-91
2022/08/18 16:35:20;;;;;;;23.50;14.57;;;;;;;25.73;52.27;92681.97;4941252;23;20120;-90
2022/08/18 16:37:47;;;;;;;29.85;20.02;;;;;;;25.67;51.70;92681.50;4931893;23;20697;-90
2022/08/18 16:40:16;;;;;;;17.48;9.65;;;;;;;25.54;51.44;92682.59;4878713;29;20044;-90
2022/08/18 16:42:42;;;;;;;18.83;11.70;;;;;;;25.45;52.07;92675.69;4927390;29;20104;-93
2022/08/18 16:47:37;;;;;;;18.27;10.25;;;;;;;25.27;52.39;92669.50;4938690;23;20607;-91
2022/08/18 16:50:06;;;;;;;11.73;8.27;;;;;;;25.18;52.81;92674.97;4911228;29;20042;-91
2022/08/18 16:52:36;;;;;;;13.10;7.47;;;;;;;25.14;53.13;92675.38;4891674;29;20032;-88
2022/08/18 16:55:10;;;;;;;11.25;7.57;;;;;;;25.17;53.14;92679.75;4912914;29;20076;-91
2022/08/18 17:06:04;;;;;;;14.35;9.73;;;;;;;25.19;53.00;92671.63;4843232;29;20082;-92
2022/08/18 17:08:33;;;;;;;18.55;12.73;;;;;;;25.26;52.75;92681.88;4837374;29;20041;-92
2022/08/18 17:11:03;;;;;;;16.52;12.48;;;;;;;25.35;52.59;92674.16;4856085;29;20076;-92
2022/08/18 17:13:30;;;;;;;14.82;10.45;;;;;;;25.44;52.41;92685.31;4873925;29;20040;-93
2022/08/18 17:15:55;;;;;;;13.60;10.15;;;;;;;25.51;52.27;92700.34;4841640;29;20029;-93
2022/08/18 17:18:23;;;;;;;12.02;10.32;;;;;;;25.54;51.98;92697.16;4864945;29;20040;-93
2022/08/18 17:20:51;;;;;;;16.60;10.05;;;;;;;25.59;51.89;92703.72;4855918;29;20046;-93
2022/08/18 17:23:16;;;;;;;12.82;9.82;;;;;;;25.61;51.91;92679.69;4825709;29;20064;-93
2022/08/18 17:25:44;;;;;;;13.98;9.68;;;;;;;25.61;51.80;92679.69;4825170;29;20029;-94
2022/08/18 17:28:09;;;;;;;12.25;8.48;;;;;;;25.66;51.77;92688.34;4825083;29;20041;-92
2022/08/18 17:30:37;;;;;;;12.88;9.27;;;;;;;25.61;51.61;92681.72;4825245;29;20041;-93
2022/08/18 17:33:09;;;;;;;12.25;8.70;;;;;;;25.59;51.71;92682.31;4855554;29;20547;-94
2022/08/18 17:35:42;;;;;;;17.35;10.85;;;;;;;25.58;51.53;92677.34;4824976;29;20046;-94
2022/08/18 17:38:15;;;;;;;11.85;9.02;;;;;;;25.63;51.66;92676.38;4855010;29;20133;-94
2022/08/18 17:40:48;;;;;;;13.93;9.40;;;;;;;25.64;51.63;92671.59;4881760;29;20039;-94
2022/08/18 17:43:19;;;;;;;12.52;9.13;;;;;;;25.62;51.42;92680.44;4899956;29;20106;-93
2022/08/18 17:45:48;;;;;;;10.77;8.80;;;;;;;25.61;51.37;92663.09;4885086;29;20031;-94
2022/08/18 17:48:16;;;;;;;12.90;9.20;;;;;;;25.59;51.41;92668.47;4884953;29;20044;-93
2022/08/18 17:53:53;;;;;;;11.70;7.93;;;;;;;25.58;51.17;92667.00;4906312;29;20413;-93
2022/08/18 17:56:35;;;;;;;10.95;8.38;;;;;;;25.55;51.35;92667.41;4884864;29;20027;-94
2022/08/18 17:59:11;;;;;;;10.85;8.10;;;;;;;25.58;51.22;92677.34;4899915;29;20110;-94
2022/08/18 18:01:36;;;;;;;10.35;7.50;;;;;;;25.59;51.19;92681.56;4901132;29;20051;-93
2022/08/18 18:04:03;;;;;;;12.05;7.78;;;;;;;25.56;51.21;92677.19;4904112;29;20636;-93
2022/08/18 18:06:39;;;;;;;9.90;7.72;;;;;;;25.54;51.43;92679.81;4903314;29;20020;-94